Jacobs, Texas
Current Conditions -  °F | °C
As of 3:55 PM on Friday 28 Nov 2014 (Local Time) from KRFI Reporting Station
Clear Clear  
Wind Chill: 66°   Ceiling: Unl
Heat Index: 66°   Visibility: 10mi
Dew Point: 49°   Wind: 8mph
Humidity: 53%   Direction: 210°SSW
Pressure: 30.14"   Gusts: 16mph
Location:  32.2818°N, 94.951°W
Report Text: KRFI 282155Z AUTO 21007G14KT 10SM CLR 19/09 A3014 RMK AO2 T01910093
Loading
Personal Weather Stations






























Interactive Weather Map New forecast layout! Learn more

10-Day Weather Forecast

Advertisements
Track Severe Weather on mobile